createdAt,value
2018-09-19T00:00:16.840Z,18.92
2018-09-19T00:01:16.836Z,18.84
2018-09-19T00:02:16.797Z,18.81
2018-09-19T00:03:16.792Z,18.77
2018-09-19T00:04:16.795Z,18.73
2018-09-19T00:05:16.770Z,18.62
2018-09-19T00:06:16.779Z,18.73
2018-09-19T00:07:16.741Z,18.68
2018-09-19T00:08:16.733Z,18.58
2018-09-19T00:09:16.728Z,18.56
2018-09-19T00:10:16.710Z,18.60
2018-09-19T00:11:16.734Z,18.53
2018-09-19T00:12:16.693Z,18.63
2018-09-19T00:13:16.679Z,18.60
2018-09-19T00:14:16.669Z,18.56
2018-09-19T00:15:16.654Z,18.55
2018-09-19T00:16:16.682Z,18.56
2018-09-19T00:17:16.631Z,18.59
2018-09-19T00:18:16.638Z,18.58
2018-09-19T00:19:16.614Z,18.49
2018-09-19T00:20:16.713Z,18.52
2018-09-19T00:21:16.588Z,18.43
2018-09-19T00:22:16.604Z,18.47
2018-09-19T00:23:16.569Z,18.43
2018-09-19T00:24:16.556Z,18.41
2018-09-19T00:25:16.546Z,18.43
2018-09-19T00:26:16.532Z,18.45
2018-09-19T00:27:16.562Z,18.35
2018-09-19T00:28:16.516Z,18.37
2018-09-19T00:29:16.498Z,18.38
2018-09-19T00:30:16.487Z,18.35
2018-09-19T00:31:16.487Z,18.35
2018-09-19T00:32:16.561Z,18.25
2018-09-19T00:33:16.461Z,18.23
2018-09-19T00:34:16.443Z,18.23
2018-09-19T00:35:16.431Z,18.19
2018-09-19T00:36:16.426Z,18.20
2018-09-19T00:37:16.405Z,18.19
2018-09-19T00:38:16.435Z,18.19
2018-09-19T00:39:16.389Z,18.01
2018-09-19T00:40:16.378Z,18.05
2018-09-19T00:41:16.364Z,18.08
2018-09-19T00:42:16.356Z,18.01
2018-09-19T00:43:16.406Z,17.98
2018-09-19T00:44:16.340Z,18.05
2018-09-19T00:45:16.340Z,17.97
2018-09-19T00:46:16.316Z,18.03
2018-09-19T00:47:16.299Z,18.01
2018-09-19T00:48:16.287Z,18.00
2018-09-19T00:49:16.307Z,18.03
2018-09-19T00:50:16.278Z,17.98
2018-09-19T00:51:16.258Z,17.94
2018-09-19T00:52:16.246Z,17.95
2018-09-19T00:53:16.229Z,17.90
2018-09-19T00:54:16.267Z,17.89
2018-09-19T00:55:16.211Z,17.89
2018-09-19T00:56:16.245Z,17.86
2018-09-19T00:57:16.193Z,17.94
2018-09-19T00:58:16.177Z,17.83
2018-09-19T00:59:16.164Z,17.86
2018-09-19T01:00:16.177Z,17.78
2018-09-19T01:01:16.146Z,17.79
2018-09-19T01:02:16.132Z,17.74
2018-09-19T01:03:16.129Z,17.70
2018-09-19T01:04:16.110Z,17.68
2018-09-19T01:05:16.128Z,17.70
2018-09-19T01:06:16.089Z,17.67
2018-09-19T01:07:16.077Z,17.64
2018-09-19T01:08:16.064Z,17.65
2018-09-19T01:09:16.052Z,17.70
2018-09-19T01:10:16.071Z,17.56
2018-09-19T01:11:16.033Z,17.60
2018-09-19T01:12:16.030Z,17.64
2018-09-19T01:13:16.015Z,17.38
2018-09-19T01:14:16.009Z,17.38
2018-09-19T01:15:16.025Z,17.30
2018-09-19T01:16:16.011Z,17.30
2018-09-19T01:17:15.969Z,17.20
2018-09-19T01:18:15.958Z,17.24
2018-09-19T01:19:15.955Z,17.23
2018-09-19T01:20:15.964Z,17.14
2018-09-19T01:21:15.921Z,17.11
2018-09-19T01:22:15.909Z,17.09
2018-09-19T01:23:15.912Z,17.15
2018-09-19T01:24:15.891Z,17.06
2018-09-19T01:25:15.885Z,17.05
2018-09-19T01:26:15.896Z,17.06
2018-09-19T01:27:15.862Z,17.06
2018-09-19T01:28:15.891Z,17.06
2018-09-19T01:29:15.837Z,17.12
2018-09-19T01:30:15.824Z,17.09
2018-09-19T01:31:15.846Z,17.11
2018-09-19T01:32:15.798Z,17.06
2018-09-19T01:33:15.792Z,17.11
2018-09-19T01:34:15.805Z,17.11
2018-09-19T01:35:15.765Z,17.04
2018-09-19T01:36:15.760Z,17.02
2018-09-19T01:37:15.747Z,16.96
2018-09-19T01:38:15.731Z,16.90
2018-09-19T01:39:15.751Z,16.97
2018-09-19T01:40:15.719Z,16.94
2018-09-19T01:41:15.707Z,16.90
2018-09-19T01:42:15.700Z,16.91
2018-09-19T01:43:15.685Z,16.86
2018-09-19T01:44:15.673Z,16.84
2018-09-19T01:45:15.690Z,16.84
2018-09-19T01:46:15.654Z,16.86
2018-09-19T01:47:15.641Z,16.86
2018-09-19T01:48:15.633Z,16.71
2018-09-19T01:49:15.615Z,16.74
2018-09-19T01:50:15.626Z,16.71
2018-09-19T01:51:15.597Z,16.71
2018-09-19T01:52:15.679Z,16.68
2018-09-19T01:53:15.576Z,16.71
2018-09-19T01:54:15.559Z,16.72
2018-09-19T01:55:15.584Z,16.68
2018-09-19T01:56:15.550Z,16.69
2018-09-19T01:57:15.534Z,16.64
2018-09-19T01:58:15.520Z,16.69
2018-09-19T01:59:15.511Z,16.66
2018-09-19T02:00:15.541Z,16.66
2018-09-19T02:01:15.489Z,16.60
2018-09-19T02:02:15.477Z,16.56
2018-09-19T02:03:15.471Z,16.53
2018-09-19T02:04:15.462Z,16.46
2018-09-19T02:05:15.444Z,16.42
2018-09-19T02:06:15.485Z,16.53
2018-09-19T02:07:15.424Z,16.51
2018-09-19T02:08:15.409Z,16.54
2018-09-19T02:09:15.396Z,16.42
2018-09-19T02:10:15.388Z,16.43
2018-09-19T02:11:15.392Z,16.43
2018-09-19T02:12:15.390Z,16.47
2018-09-19T02:13:15.349Z,16.50
2018-09-19T02:14:15.340Z,16.47
2018-09-19T02:15:15.331Z,16.39
2018-09-19T02:16:15.321Z,16.54
2018-09-19T02:17:15.336Z,16.38
2018-09-19T02:18:15.302Z,16.51
2018-09-19T02:19:15.283Z,16.54
2018-09-19T02:20:15.279Z,16.39
2018-09-19T02:21:15.263Z,16.43
2018-09-19T02:22:15.282Z,16.41
2018-09-19T02:23:15.246Z,16.41
2018-09-19T02:24:15.229Z,16.50
2018-09-19T02:25:15.273Z,16.47
2018-09-19T02:26:15.210Z,16.53
2018-09-19T02:27:15.213Z,16.42
2018-09-19T02:28:15.183Z,16.47
2018-09-19T02:29:15.184Z,16.49
2018-09-19T02:30:15.162Z,16.43
2018-09-19T02:31:15.154Z,16.42
2018-09-19T02:32:15.185Z,16.41
2018-09-19T02:33:15.132Z,16.38
2018-09-19T02:34:15.119Z,16.39
2018-09-19T02:35:15.104Z,16.33
2018-09-19T02:36:15.104Z,16.31
2018-09-19T02:37:15.149Z,16.26
2018-09-19T02:38:15.076Z,16.16
2018-09-19T02:39:15.063Z,16.21
2018-09-19T02:40:15.056Z,16.16
2018-09-19T02:41:15.036Z,16.09
2018-09-19T02:42:15.069Z,16.17
2018-09-19T02:43:15.026Z,16.16
2018-09-19T02:44:15.008Z,16.15
2018-09-19T02:45:15.001Z,16.10
2018-09-19T02:46:14.993Z,16.13
2018-09-19T02:47:14.980Z,16.05
2018-09-19T02:48:15.030Z,16.08
2018-09-19T02:49:14.952Z,16.05
2018-09-19T02:50:14.939Z,16.08
2018-09-19T02:51:14.956Z,16.08
2018-09-19T02:52:14.931Z,15.94
2018-09-19T02:53:14.936Z,15.88
2018-09-19T02:54:14.899Z,15.80
2018-09-19T02:55:14.886Z,15.88
2018-09-19T02:56:14.879Z,15.72
2018-09-19T02:57:14.868Z,15.83
2018-09-19T02:58:14.872Z,15.77
2018-09-19T02:59:14.848Z,15.73
2018-09-19T03:00:14.828Z,15.68
2018-09-19T03:01:14.813Z,15.80
2018-09-19T03:02:14.805Z,15.76
2018-09-19T03:03:14.847Z,15.77
2018-09-19T03:04:14.781Z,15.83
2018-09-19T03:05:14.776Z,15.77
2018-09-19T03:06:14.757Z,15.83
2018-09-19T03:07:14.816Z,15.83
2018-09-19T03:08:14.738Z,15.86
2018-09-19T03:09:14.748Z,15.82
2018-09-19T03:10:14.738Z,15.80
2018-09-19T03:11:14.715Z,15.76
2018-09-19T03:12:14.692Z,15.77
2018-09-19T03:13:14.689Z,15.70
2018-09-19T03:14:14.709Z,15.75
2018-09-19T03:15:14.694Z,15.68
2018-09-19T03:16:14.643Z,15.77
2018-09-19T03:17:14.672Z,15.67
2018-09-19T03:18:14.638Z,15.73
2018-09-19T03:19:14.619Z,15.70
2018-09-19T03:20:14.644Z,15.68
2018-09-19T03:21:14.593Z,15.68
2018-09-19T03:22:14.610Z,15.65
2018-09-19T03:23:14.573Z,15.65
2018-09-19T03:24:14.567Z,15.61
2018-09-19T03:25:14.563Z,15.58
2018-09-19T03:26:14.567Z,15.58
2018-09-19T03:27:14.538Z,15.58
2018-09-19T03:28:14.521Z,15.65
2018-09-19T03:29:14.515Z,15.64
2018-09-19T03:30:14.493Z,15.65
2018-09-19T03:31:14.552Z,15.62
2018-09-19T03:32:14.473Z,15.61
2018-09-19T03:33:14.466Z,15.68
2018-09-19T03:34:14.461Z,15.55
2018-09-19T03:35:14.461Z,15.57
2018-09-19T03:36:14.477Z,15.62
2018-09-19T03:37:14.423Z,15.51
2018-09-19T03:38:14.404Z,15.61
2018-09-19T03:39:14.407Z,15.57
2018-09-19T03:40:14.379Z,15.62
2018-09-19T03:41:14.399Z,15.58
2018-09-19T03:42:14.368Z,15.54
2018-09-19T03:43:14.351Z,15.55
2018-09-19T03:44:14.341Z,15.55
2018-09-19T03:45:14.351Z,15.54
2018-09-19T03:46:14.314Z,15.64
2018-09-19T03:47:14.361Z,15.57
2018-09-19T03:48:14.301Z,15.55
2018-09-19T03:49:14.282Z,15.57
2018-09-19T03:50:14.277Z,15.59
2018-09-19T03:51:14.265Z,15.55
2018-09-19T03:52:14.284Z,15.57
2018-09-19T03:53:14.241Z,15.54
2018-09-19T03:54:14.229Z,15.55
2018-09-19T03:55:14.223Z,15.51
2018-09-19T03:56:14.217Z,15.52
2018-09-19T03:57:14.232Z,15.52
2018-09-19T03:58:14.256Z,15.47
2018-09-19T03:59:14.179Z,15.47
2018-09-19T04:00:14.164Z,15.46
2018-09-19T04:01:14.162Z,15.47
2018-09-19T04:02:15.667Z,15.43
2018-09-19T04:03:14.136Z,15.43
2018-09-19T04:04:14.129Z,15.42
2018-09-19T04:05:14.118Z,15.44
2018-09-19T04:06:14.095Z,15.37
2018-09-19T04:07:14.109Z,15.37
2018-09-19T04:08:14.085Z,15.27
2018-09-19T04:09:14.130Z,15.37
2018-09-19T04:10:14.056Z,15.29
2018-09-19T04:11:14.060Z,15.37
2018-09-19T04:12:14.063Z,15.24
2018-09-19T04:13:14.022Z,15.31
2018-09-19T04:14:14.037Z,15.28
2018-09-19T04:15:14.012Z,15.31
2018-09-19T04:16:14.002Z,15.29
2018-09-19T04:17:13.980Z,15.28
2018-09-19T04:18:13.970Z,15.19
2018-09-19T04:19:13.983Z,15.29
2018-09-19T04:20:13.949Z,15.37
2018-09-19T04:21:13.945Z,15.40
2018-09-19T04:22:13.932Z,15.39
2018-09-19T04:23:13.920Z,15.36
2018-09-19T04:24:13.930Z,15.42
2018-09-19T04:25:13.906Z,15.43
2018-09-19T04:26:13.884Z,15.39
2018-09-19T04:27:13.895Z,15.43
2018-09-19T04:28:13.884Z,15.42
2018-09-19T04:29:13.879Z,15.46
2018-09-19T04:30:13.839Z,15.39
2018-09-19T04:31:13.841Z,15.42
2018-09-19T04:32:13.864Z,15.44
2018-09-19T04:33:13.817Z,15.40
2018-09-19T04:34:13.796Z,15.37
2018-09-19T04:35:13.822Z,15.42
2018-09-19T04:36:13.777Z,15.39
2018-09-19T04:37:13.771Z,15.27
2018-09-19T04:38:13.754Z,15.28
2018-09-19T04:39:13.747Z,15.39
2018-09-19T04:40:13.829Z,15.33
2018-09-19T04:41:13.723Z,15.33
2018-09-19T04:42:13.719Z,15.24
2018-09-19T04:43:13.760Z,15.25
2018-09-19T04:44:13.682Z,15.25
2018-09-19T04:45:13.767Z,15.24
2018-09-19T04:46:13.666Z,15.22
2018-09-19T04:47:13.652Z,15.21
2018-09-19T04:48:13.662Z,15.17
2018-09-19T04:49:13.628Z,15.19
2018-09-19T04:50:13.716Z,15.10
2018-09-19T04:51:13.692Z,15.06
2018-09-19T04:52:13.602Z,15.07
2018-09-19T04:53:13.589Z,15.02
2018-09-19T04:54:13.589Z,15.06
2018-09-19T04:55:13.593Z,15.07
2018-09-19T04:56:13.561Z,15.10
2018-09-19T04:57:13.546Z,15.04
2018-09-19T04:58:13.539Z,15.04
2018-09-19T04:59:13.531Z,15.11
2018-09-19T05:00:13.564Z,15.06
2018-09-19T05:01:13.512Z,15.06
2018-09-19T05:02:13.497Z,15.09
2018-09-19T05:03:13.483Z,15.09
2018-09-19T05:04:13.474Z,15.06
2018-09-19T05:05:13.460Z,15.10
2018-09-19T05:06:13.488Z,15.06
2018-09-19T05:07:13.522Z,15.03
2018-09-19T05:08:13.453Z,15.03
2018-09-19T05:09:13.411Z,15.02
2018-09-19T05:10:13.433Z,15.09
2018-09-19T05:11:13.447Z,15.15
2018-09-19T05:12:13.386Z,15.11
2018-09-19T05:13:13.376Z,15.11
2018-09-19T05:14:13.369Z,15.15
2018-09-19T05:15:13.349Z,15.21
2018-09-19T05:16:13.357Z,15.24
2018-09-19T05:17:13.335Z,15.29
2018-09-19T05:18:13.315Z,15.24
2018-09-19T05:19:13.330Z,15.31
2018-09-19T05:20:13.291Z,15.18
2018-09-19T05:21:13.305Z,15.29
2018-09-19T05:22:13.268Z,15.36
2018-09-19T05:23:13.358Z,15.25
2018-09-19T05:24:13.261Z,15.25
2018-09-19T05:25:13.241Z,15.44
2018-09-19T05:26:13.264Z,15.43
2018-09-19T05:27:13.222Z,15.40
2018-09-19T05:28:13.208Z,15.51
2018-09-19T05:29:13.203Z,15.52
2018-09-19T05:30:13.189Z,15.59
2018-09-19T05:31:13.175Z,15.58
2018-09-19T05:32:13.196Z,15.72
2018-09-19T05:33:13.148Z,15.65
2018-09-19T05:34:13.176Z,15.68
2018-09-19T05:35:13.134Z,15.67
2018-09-19T05:36:13.129Z,15.70
2018-09-19T05:37:13.138Z,15.55
2018-09-19T05:38:13.096Z,15.64
2018-09-19T05:39:13.099Z,15.62
2018-09-19T05:40:13.081Z,15.65
2018-09-19T05:41:13.063Z,15.68
2018-09-19T05:42:13.103Z,15.70
2018-09-19T05:43:13.038Z,15.77
2018-09-19T05:44:13.037Z,15.73
2018-09-19T05:45:13.018Z,15.75
2018-09-19T05:46:13.064Z,15.80
2018-09-19T05:47:13.042Z,15.77
2018-09-19T05:48:12.988Z,15.80
2018-09-19T05:49:12.976Z,15.83
2018-09-19T05:50:13.001Z,15.73
2018-09-19T05:51:13.014Z,15.82
2018-09-19T05:52:12.966Z,15.77
2018-09-19T05:53:12.928Z,15.72
2018-09-19T05:54:12.913Z,15.80
2018-09-19T05:55:12.908Z,15.75
2018-09-19T05:56:12.894Z,15.90
2018-09-19T05:57:12.888Z,15.90
2018-09-19T05:58:12.909Z,15.86
2018-09-19T05:59:12.861Z,15.94
2018-09-19T06:00:12.851Z,15.97
2018-09-19T06:01:12.838Z,15.95
2018-09-19T06:02:12.833Z,16.04
2018-09-19T06:03:12.972Z,16.10
2018-09-19T06:04:12.808Z,16.08
2018-09-19T06:05:12.806Z,16.17
2018-09-19T06:06:12.796Z,16.24
2018-09-19T06:07:12.768Z,16.36
2018-09-19T06:08:12.761Z,16.36
2018-09-19T06:09:12.773Z,16.47
2018-09-19T06:10:12.756Z,16.50
2018-09-19T06:11:12.727Z,16.49
2018-09-19T06:12:12.720Z,16.42
2018-09-19T06:13:12.712Z,16.53
2018-09-19T06:14:12.725Z,16.57
2018-09-19T06:15:12.687Z,16.56
2018-09-19T06:16:12.668Z,16.58
2018-09-19T06:17:12.655Z,16.64
2018-09-19T06:18:12.654Z,16.68
2018-09-19T06:19:12.733Z,16.71
2018-09-19T06:20:12.635Z,16.66
2018-09-19T06:21:12.613Z,16.75
2018-09-19T06:22:12.609Z,16.69
2018-09-19T06:23:12.588Z,16.71
2018-09-19T06:24:12.575Z,16.69
2018-09-19T06:25:12.599Z,16.81
2018-09-19T06:26:12.556Z,16.81
2018-09-19T06:27:12.549Z,16.78
2018-09-19T06:28:12.542Z,16.79
2018-09-19T06:29:12.528Z,16.89
2018-09-19T06:30:12.547Z,16.93
2018-09-19T06:31:12.506Z,16.90
2018-09-19T06:32:12.502Z,16.89
2018-09-19T06:33:12.698Z,16.99
2018-09-19T06:34:12.503Z,17.08
2018-09-19T06:35:12.482Z,17.15
2018-09-19T06:36:12.449Z,17.08
2018-09-19T06:37:12.438Z,17.22
2018-09-19T06:38:12.430Z,17.29
2018-09-19T06:39:12.440Z,17.27
2018-09-19T06:40:12.563Z,17.23
2018-09-19T06:41:12.396Z,17.33
2018-09-19T06:42:12.377Z,17.34
2018-09-19T06:43:12.468Z,17.42
2018-09-19T06:44:12.365Z,17.42
2018-09-19T06:45:12.369Z,17.44
2018-09-19T06:46:12.349Z,17.60
2018-09-19T06:47:12.325Z,17.57
2018-09-19T06:48:12.320Z,17.59
2018-09-19T06:49:12.302Z,17.67
2018-09-19T06:50:12.311Z,17.79
2018-09-19T06:51:12.294Z,17.76
2018-09-19T06:52:12.311Z,17.76
2018-09-19T06:53:12.260Z,17.86
2018-09-19T06:54:12.252Z,17.92
2018-09-19T06:55:12.239Z,17.97
2018-09-19T06:56:12.241Z,18.00
2018-09-19T06:57:12.249Z,18.03
2018-09-19T06:58:12.209Z,18.04
2018-09-19T06:59:12.196Z,18.18
2018-09-19T07:00:12.187Z,18.11
2018-09-19T07:01:12.179Z,18.18
2018-09-19T07:02:12.188Z,18.20
2018-09-19T07:03:12.157Z,18.33
2018-09-19T07:04:12.138Z,18.37
2018-09-19T07:05:12.126Z,18.43
2018-09-19T07:06:12.124Z,18.41
2018-09-19T07:07:12.104Z,18.47
2018-09-19T07:08:12.121Z,18.59
2018-09-19T07:09:12.083Z,18.55
2018-09-19T07:10:12.070Z,18.62
2018-09-19T07:11:12.061Z,18.62
2018-09-19T07:12:12.047Z,18.62
2018-09-19T07:13:12.069Z,18.63
2018-09-19T07:14:12.036Z,18.83
2018-09-19T07:15:12.020Z,18.80
2018-09-19T07:16:12.006Z,18.88
2018-09-19T07:17:11.999Z,18.90
2018-09-19T07:18:12.022Z,18.98
2018-09-19T07:19:11.972Z,19.00
2018-09-19T07:20:11.995Z,19.08
2018-09-19T07:21:11.950Z,19.21
2018-09-19T07:22:11.945Z,19.07
2018-09-19T07:23:11.964Z,19.29
2018-09-19T07:24:11.926Z,19.29
2018-09-19T07:25:11.960Z,19.39
2018-09-19T07:26:11.897Z,19.34
2018-09-19T07:27:11.894Z,19.44
2018-09-19T07:28:11.890Z,19.37
2018-09-19T07:29:11.893Z,19.52
2018-09-19T07:30:11.856Z,19.54
2018-09-19T07:31:11.972Z,19.64
2018-09-19T07:32:11.856Z,19.64
2018-09-19T07:33:11.817Z,19.62
2018-09-19T07:34:11.809Z,19.63
2018-09-19T07:35:11.819Z,19.81
2018-09-19T07:36:11.787Z,19.79
2018-09-19T07:37:11.784Z,19.86
2018-09-19T07:38:11.797Z,19.88
2018-09-19T07:39:11.770Z,19.91
2018-09-19T07:40:11.783Z,19.91
2018-09-19T07:41:11.730Z,19.95
2018-09-19T07:42:11.729Z,20.13
2018-09-19T07:43:11.730Z,19.99
2018-09-19T07:44:11.697Z,19.96
2018-09-19T07:45:11.697Z,20.06
2018-09-19T07:46:11.681Z,20.09
2018-09-19T07:47:11.669Z,20.16
2018-09-19T07:48:11.683Z,20.21
2018-09-19T07:49:11.647Z,20.13
2018-09-19T07:50:11.631Z,20.28
2018-09-19T07:51:11.617Z,20.25
2018-09-19T07:52:11.606Z,20.26
2018-09-19T07:53:11.630Z,20.41
2018-09-19T07:54:11.589Z,20.26
2018-09-19T07:55:11.765Z,20.36
2018-09-19T07:56:11.566Z,20.44
2018-09-19T07:57:11.565Z,20.47
2018-09-19T07:58:11.540Z,20.37
2018-09-19T07:59:11.593Z,20.44
2018-09-19T08:00:11.521Z,20.39
2018-09-19T08:01:11.714Z,20.50
2018-09-19T08:02:11.501Z,20.50
2018-09-19T08:03:11.495Z,20.59
2018-09-19T08:04:11.489Z,20.55
2018-09-19T08:05:11.474Z,20.51
2018-09-19T08:06:11.483Z,20.51
2018-09-19T08:07:11.448Z,20.55
2018-09-19T08:08:11.427Z,20.62
2018-09-19T08:09:11.548Z,20.56
2018-09-19T08:10:11.422Z,20.58
2018-09-19T08:11:11.408Z,20.67
2018-09-19T08:12:11.417Z,20.65
2018-09-19T08:13:11.396Z,20.69
2018-09-19T08:14:11.377Z,20.70
2018-09-19T08:15:11.353Z,20.67
2018-09-19T08:16:11.344Z,20.77
2018-09-19T08:17:11.355Z,20.81
2018-09-19T08:18:11.321Z,20.84
2018-09-19T08:19:11.400Z,20.78
2018-09-19T08:20:11.306Z,20.95
2018-09-19T08:21:11.289Z,20.96
2018-09-19T08:22:11.302Z,21.03
2018-09-19T08:23:11.272Z,21.02
2018-09-19T08:24:11.259Z,21.11
2018-09-19T08:25:11.243Z,21.06
2018-09-19T08:26:11.232Z,21.21
2018-09-19T08:27:11.245Z,21.29
2018-09-19T08:28:11.214Z,21.29
2018-09-19T08:29:11.201Z,21.30
2018-09-19T08:30:11.207Z,21.32
2018-09-19T08:31:11.179Z,21.35
2018-09-19T08:32:12.202Z,21.39
2018-09-19T08:33:11.157Z,21.30
2018-09-19T08:34:11.209Z,21.45
2018-09-19T08:35:11.147Z,21.43
2018-09-19T08:36:11.121Z,21.46
2018-09-19T08:37:11.141Z,21.48
2018-09-19T08:38:11.107Z,21.55
2018-09-19T08:39:11.090Z,21.40
2018-09-19T08:40:11.087Z,21.57
2018-09-19T08:41:11.076Z,21.54
2018-09-19T08:42:11.063Z,21.58
2018-09-19T08:43:11.068Z,21.60
2018-09-19T08:44:11.034Z,21.66
2018-09-19T08:45:11.027Z,21.64
2018-09-19T08:46:11.018Z,21.70
2018-09-19T08:47:11.016Z,21.75
2018-09-19T08:48:10.991Z,21.72
2018-09-19T08:49:11.006Z,21.88
2018-09-19T08:50:10.976Z,21.85
2018-09-19T08:51:10.978Z,21.95
2018-09-19T08:52:10.943Z,22.04
2018-09-19T08:53:10.934Z,22.02
2018-09-19T08:54:10.960Z,22.15
2018-09-19T08:55:10.912Z,22.11
2018-09-19T08:56:10.904Z,22.26
2018-09-19T08:57:10.911Z,22.28
2018-09-19T08:58:10.876Z,22.25
2018-09-19T08:59:10.965Z,22.29
2018-09-19T09:00:10.863Z,22.28
2018-09-19T09:01:10.843Z,22.35
2018-09-19T09:02:10.839Z,22.36
2018-09-19T09:03:10.825Z,22.39
2018-09-19T09:04:10.813Z,22.44
2018-09-19T09:05:10.853Z,22.44
2018-09-19T09:06:10.794Z,22.53
2018-09-19T09:07:10.786Z,22.65
2018-09-19T09:08:10.768Z,22.72
2018-09-19T09:09:10.767Z,22.62
2018-09-19T09:10:10.781Z,22.72
2018-09-19T09:11:10.737Z,22.72
2018-09-19T09:12:10.773Z,22.72
2018-09-19T09:13:10.726Z,22.72
2018-09-19T09:14:10.705Z,22.81
2018-09-19T09:15:10.809Z,22.78
2018-09-19T09:16:10.695Z,22.81
2018-09-19T09:17:10.679Z,22.83
2018-09-19T09:18:10.669Z,22.78
2018-09-19T09:19:10.648Z,22.96
2018-09-19T09:20:10.674Z,22.96
2018-09-19T09:21:10.632Z,22.96
2018-09-19T09:22:10.618Z,22.96
2018-09-19T09:23:10.606Z,23.02
2018-09-19T09:24:10.595Z,23.05
2018-09-19T09:25:10.584Z,23.03
2018-09-19T09:26:10.640Z,23.15
2018-09-19T09:27:10.643Z,23.10
2018-09-19T09:28:10.551Z,23.17
2018-09-19T09:29:10.544Z,23.27
2018-09-19T09:30:10.549Z,23.20
2018-09-19T09:31:10.664Z,23.21
2018-09-19T09:32:10.516Z,23.18
2018-09-19T09:33:10.493Z,23.27
2018-09-19T09:34:10.529Z,23.27
2018-09-19T09:35:10.473Z,23.34
2018-09-19T09:36:10.462Z,23.25
2018-09-19T09:37:10.477Z,23.32
2018-09-19T09:38:10.445Z,23.39
2018-09-19T09:39:10.433Z,23.41
2018-09-19T09:40:10.418Z,23.48
2018-09-19T09:41:10.410Z,23.43
2018-09-19T09:42:10.429Z,23.50
2018-09-19T09:43:10.388Z,23.59
2018-09-19T09:44:10.376Z,23.66
2018-09-19T09:45:10.378Z,23.66
2018-09-19T09:46:10.420Z,23.71
2018-09-19T09:47:10.341Z,23.69
2018-09-19T09:48:10.369Z,23.76
2018-09-19T09:49:10.327Z,23.83
2018-09-19T09:50:10.369Z,23.78
2018-09-19T09:51:10.297Z,23.80
2018-09-19T09:52:10.296Z,23.92
2018-09-19T09:53:10.306Z,23.95
2018-09-19T09:54:10.290Z,23.98
2018-09-19T09:55:10.322Z,23.98
2018-09-19T09:56:10.253Z,24.05
2018-09-19T09:57:10.230Z,24.17
2018-09-19T09:58:10.222Z,24.20
2018-09-19T09:59:10.246Z,24.20
2018-09-19T10:00:10.201Z,24.17
2018-09-19T10:01:10.277Z,24.32
2018-09-19T10:02:10.180Z,24.29
2018-09-19T10:03:17.223Z,24.33
2018-09-19T10:04:10.184Z,24.35
2018-09-19T10:05:10.178Z,24.40
2018-09-19T10:06:10.131Z,24.53
2018-09-19T10:07:10.125Z,24.50
2018-09-19T10:08:10.113Z,24.58
2018-09-19T10:09:10.106Z,24.58
2018-09-19T10:10:10.133Z,24.74
2018-09-19T10:11:10.082Z,24.74
2018-09-19T10:12:10.114Z,24.78
2018-09-19T10:13:10.075Z,24.78
2018-09-19T10:14:10.058Z,24.89
2018-09-19T10:15:10.041Z,24.89
2018-09-19T10:16:10.064Z,24.92
2018-09-19T10:17:10.023Z,25.03
2018-09-19T10:18:10.005Z,25.07
2018-09-19T10:19:10.008Z,25.06
2018-09-19T10:20:09.981Z,25.04
2018-09-19T10:21:10.011Z,25.18
2018-09-19T10:22:10.000Z,25.17
2018-09-19T10:23:09.953Z,25.31
2018-09-19T10:24:09.936Z,25.28
2018-09-19T10:25:09.933Z,25.35
2018-09-19T10:26:09.953Z,25.47
2018-09-19T10:27:09.919Z,25.48
2018-09-19T10:28:09.934Z,25.51
2018-09-19T10:29:09.885Z,25.59
2018-09-19T10:30:09.888Z,25.51
2018-09-19T10:31:09.860Z,25.68
2018-09-19T10:32:09.855Z,25.53
2018-09-19T10:33:09.868Z,25.59
2018-09-19T10:34:09.849Z,25.50
2018-09-19T10:35:09.824Z,25.47
2018-09-19T10:36:09.811Z,25.44
2018-09-19T10:37:09.799Z,25.31
2018-09-19T10:38:09.819Z,25.23
2018-09-19T10:39:09.780Z,25.23
2018-09-19T10:40:09.765Z,25.07
2018-09-19T10:41:09.781Z,25.03
2018-09-19T10:42:09.761Z,25.03
2018-09-19T10:43:09.780Z,25.03
2018-09-19T10:44:09.737Z,24.96
2018-09-19T10:45:09.713Z,25.03
2018-09-19T10:46:09.700Z,25.04
2018-09-19T10:47:09.693Z,24.98
2018-09-19T10:48:09.719Z,25.01
2018-09-19T10:49:09.666Z,25.03
2018-09-19T10:50:09.671Z,25.07
2018-09-19T10:51:09.646Z,25.17
2018-09-19T10:52:09.668Z,25.25
2018-09-19T10:53:09.623Z,25.31
2018-09-19T10:54:09.631Z,25.35
2018-09-19T10:55:09.604Z,25.44
2018-09-19T10:56:09.603Z,25.38
2018-09-19T10:57:09.613Z,25.36
2018-09-19T10:58:09.571Z,25.38
2018-09-19T10:59:09.566Z,25.26
2018-09-19T11:00:09.546Z,25.33
2018-09-19T11:01:09.547Z,25.25
2018-09-19T11:02:09.570Z,25.17
2018-09-19T11:03:09.517Z,25.11
2018-09-19T11:04:09.504Z,25.16
2018-09-19T11:05:09.492Z,25.21
2018-09-19T11:06:09.514Z,25.22
2018-09-19T11:07:09.472Z,25.29
2018-09-19T11:08:09.460Z,25.28
2018-09-19T11:09:09.449Z,25.33
2018-09-19T11:10:09.505Z,25.41
2018-09-19T11:11:09.469Z,25.43
2018-09-19T11:12:09.418Z,25.43
2018-09-19T11:13:09.412Z,25.54
2018-09-19T11:14:09.393Z,25.60
2018-09-19T11:15:09.412Z,25.54
2018-09-19T11:16:09.400Z,25.65
2018-09-19T11:17:09.374Z,25.63
2018-09-19T11:18:09.349Z,25.69
2018-09-19T11:19:09.352Z,25.66
2018-09-19T11:20:09.331Z,25.69
2018-09-19T11:21:09.356Z,25.70
2018-09-19T11:22:09.302Z,25.69
2018-09-19T11:23:09.295Z,25.66
2018-09-19T11:24:09.322Z,25.68
2018-09-19T11:25:09.275Z,25.80
2018-09-19T11:26:09.263Z,25.85
2018-09-19T11:27:09.252Z,25.90
2018-09-19T11:28:09.236Z,26.02
2018-09-19T11:29:09.260Z,26.07
2018-09-19T11:30:09.246Z,26.05
2018-09-19T11:31:09.205Z,26.15
2018-09-19T11:32:09.205Z,26.05
2018-09-19T11:33:09.216Z,26.13
2018-09-19T11:34:09.188Z,26.16
2018-09-19T11:35:09.165Z,26.23
2018-09-19T11:36:09.154Z,26.33
2018-09-19T11:37:09.150Z,26.40
2018-09-19T11:38:09.167Z,26.53
2018-09-19T11:39:09.126Z,26.53
2018-09-19T11:40:09.140Z,26.53
2018-09-19T11:41:09.100Z,26.51
2018-09-19T11:42:09.088Z,26.48
2018-09-19T11:43:09.102Z,26.53
2018-09-19T11:44:09.099Z,26.53
2018-09-19T11:45:09.058Z,26.53
2018-09-19T11:46:09.046Z,26.59
2018-09-19T11:47:09.032Z,26.48
2018-09-19T11:48:09.021Z,26.65
2018-09-19T11:49:09.043Z,26.77
2018-09-19T11:50:09.029Z,26.75
2018-09-19T11:51:09.015Z,26.78
2018-09-19T11:52:09.004Z,26.81
2018-09-19T11:53:08.973Z,26.84
2018-09-19T11:54:08.959Z,26.83
2018-09-19T11:55:08.955Z,26.84
2018-09-19T11:56:08.979Z,26.85
2018-09-19T11:57:08.932Z,26.88
2018-09-19T11:58:08.972Z,26.81
2018-09-19T11:59:08.924Z,26.83
2018-09-19T12:00:08.890Z,26.84
2018-09-19T12:01:08.937Z,26.89
2018-09-19T12:02:08.876Z,26.88
2018-09-19T12:03:08.860Z,26.85
2018-09-19T12:04:08.851Z,26.85
2018-09-19T12:05:08.839Z,26.84
2018-09-19T12:06:08.913Z,26.81
2018-09-19T12:07:08.822Z,26.70
2018-09-19T12:08:08.811Z,26.63
2018-09-19T12:09:08.798Z,26.71
2018-09-19T12:10:08.820Z,26.59
2018-09-19T12:11:08.800Z,26.58
2018-09-19T12:12:08.790Z,26.51
2018-09-19T12:13:08.749Z,26.48
2018-09-19T12:14:08.772Z,26.51
2018-09-19T12:15:08.754Z,26.53
2018-09-19T12:16:08.714Z,26.51
2018-09-19T12:17:08.707Z,26.51
2018-09-19T12:18:08.695Z,26.59
2018-09-19T12:19:08.685Z,26.58
2018-09-19T12:20:08.704Z,26.63
2018-09-19T12:21:08.669Z,26.77
2018-09-19T12:22:08.651Z,26.88
2018-09-19T12:23:08.652Z,27.00
2018-09-19T12:24:08.636Z,27.21
2018-09-19T12:25:08.661Z,27.49
2018-09-19T12:26:08.667Z,27.74
2018-09-19T12:27:08.711Z,27.95
2018-09-19T12:28:08.595Z,28.07
2018-09-19T12:29:08.591Z,28.14
2018-09-19T12:30:08.623Z,28.30
2018-09-19T12:31:08.559Z,28.41
2018-09-19T12:32:08.546Z,28.66
2018-09-19T12:33:08.615Z,28.74
2018-09-19T12:34:08.540Z,28.64
2018-09-19T12:35:08.518Z,28.38
2018-09-19T12:36:08.500Z,28.20
2018-09-19T12:37:08.491Z,28.35
2018-09-19T12:38:08.514Z,28.35
2018-09-19T12:39:08.472Z,28.48
2018-09-19T12:40:08.467Z,28.57
2018-09-19T12:41:08.465Z,28.63
2018-09-19T12:42:08.480Z,28.70
2018-09-19T12:43:08.432Z,28.64
2018-09-19T12:44:08.420Z,28.48
2018-09-19T12:45:08.403Z,28.48
2018-09-19T12:46:08.432Z,28.25
2018-09-19T12:47:08.420Z,28.27
2018-09-19T12:48:08.376Z,28.08
2018-09-19T12:49:08.387Z,28.23
2018-09-19T12:50:08.355Z,28.41
2018-09-19T12:51:08.344Z,28.27
2018-09-19T12:52:08.365Z,28.38